sensor_id;sensor_type;location;lat;lon;timestamp;temperature;humidity
55083;DHT22;40978;52.850;6.506;2023-05-07T00:01:40;13.80;99.90
55083;DHT22;40978;52.850;6.506;2023-05-07T00:04:06;13.80;99.90
55083;DHT22;40978;52.850;6.506;2023-05-07T00:06:33;13.80;99.90
55083;DHT22;40978;52.850;6.506;2023-05-07T00:08:59;13.80;99.90
55083;DHT22;40978;52.850;6.506;2023-05-07T00:11:25;13.70;99.90
55083;DHT22;40978;52.850;6.506;2023-05-07T00:13:51;13.80;99.90
55083;DHT22;40978;52.850;6.506;2023-05-07T00:16:17;13.70;99.90
55083;DHT22;40978;52.850;6.506;2023-05-07T00:18:43;13.70;99.90
55083;DHT22;40978;52.850;6.506;2023-05-07T00:21:08;13.70;99.90
55083;DHT22;40978;52.850;6.506;2023-05-07T00:23:34;13.70;99.90
55083;DHT22;40978;52.850;6.506;2023-05-07T00:26:00;13.70;99.90
55083;DHT22;40978;52.850;6.506;2023-05-07T00:28:25;13.60;99.90
55083;DHT22;40978;52.850;6.506;2023-05-07T00:30:52;13.70;99.90
55083;DHT22;40978;52.850;6.506;2023-05-07T00:33:17;13.70;99.90
55083;DHT22;40978;52.850;6.506;2023-05-07T00:35:43;13.60;99.90
55083;DHT22;40978;52.850;6.506;2023-05-07T00:38:09;13.60;99.90
55083;DHT22;40978;52.850;6.506;2023-05-07T00:40:35;13.60;99.90
55083;DHT22;40978;52.850;6.506;2023-05-07T00:43:00;13.60;99.90
55083;DHT22;40978;52.850;6.506;2023-05-07T00:45:27;13.60;99.90
55083;DHT22;40978;52.850;6.506;2023-05-07T00:47:57;13.60;99.90
55083;DHT22;40978;52.850;6.506;2023-05-07T00:50:23;13.60;99.90
55083;DHT22;40978;52.850;6.506;2023-05-07T00:52:49;13.60;99.90
55083;DHT22;40978;52.850;6.506;2023-05-07T00:55:15;13.50;99.90
55083;DHT22;40978;52.850;6.506;2023-05-07T00:57:41;13.50;99.90
55083;DHT22;40978;52.850;6.506;2023-05-07T01:00:08;13.50;99.90
55083;DHT22;40978;52.850;6.506;2023-05-07T01:02:35;13.50;99.90
55083;DHT22;40978;52.850;6.506;2023-05-07T01:05:02;13.40;99.90
55083;DHT22;40978;52.850;6.506;2023-05-07T01:07:30;13.40;99.90
55083;DHT22;40978;52.850;6.506;2023-05-07T01:09:56;13.40;99.90
55083;DHT22;40978;52.850;6.506;2023-05-07T01:12:23;13.30;99.90
55083;DHT22;40978;52.850;6.506;2023-05-07T01:14:50;13.30;99.90
55083;DHT22;40978;52.850;6.506;2023-05-07T01:17:16;13.30;99.90
55083;DHT22;40978;52.850;6.506;2023-05-07T01:19:42;13.20;99.90
55083;DHT22;40978;52.850;6.506;2023-05-07T01:22:10;13.20;99.90
55083;DHT22;40978;52.850;6.506;2023-05-07T01:24:40;13.20;99.90
55083;DHT22;40978;52.850;6.506;2023-05-07T01:27:06;13.10;99.90
55083;DHT22;40978;52.850;6.506;2023-05-07T01:29:32;13.00;99.90
55083;DHT22;40978;52.850;6.506;2023-05-07T01:31:59;12.90;99.90
55083;DHT22;40978;52.850;6.506;2023-05-07T01:34:27;12.80;99.90
55083;DHT22;40978;52.850;6.506;2023-05-07T01:36:55;12.80;99.90
55083;DHT22;40978;52.850;6.506;2023-05-07T01:39:27;12.80;99.90
55083;DHT22;40978;52.850;6.506;2023-05-07T01:41:55;12.70;99.90
55083;DHT22;40978;52.850;6.506;2023-05-07T01:44:22;12.60;99.90
55083;DHT22;40978;52.850;6.506;2023-05-07T01:46:48;12.60;99.90
55083;DHT22;40978;52.850;6.506;2023-05-07T01:49:15;12.50;99.90
55083;DHT22;40978;52.850;6.506;2023-05-07T01:51:41;12.50;99.90
55083;DHT22;40978;52.850;6.506;2023-05-07T01:54:07;12.50;99.90
55083;DHT22;40978;52.850;6.506;2023-05-07T01:56:34;12.40;99.90
55083;DHT22;40978;52.850;6.506;2023-05-07T01:58:59;12.40;99.90
55083;DHT22;40978;52.850;6.506;2023-05-07T02:01:25;12.40;99.90
55083;DHT22;40978;52.850;6.506;2023-05-07T02:03:51;12.40;99.90
55083;DHT22;40978;52.850;6.506;2023-05-07T02:06:17;12.30;99.90
55083;DHT22;40978;52.850;6.506;2023-05-07T02:08:43;12.30;99.90
55083;DHT22;40978;52.850;6.506;2023-05-07T02:11:08;12.30;99.90
55083;DHT22;40978;52.850;6.506;2023-05-07T02:13:34;12.30;99.90
55083;DHT22;40978;52.850;6.506;2023-05-07T02:16:00;12.20;99.90
55083;DHT22;40978;52.850;6.506;2023-05-07T02:18:26;12.20;99.90
55083;DHT22;40978;52.850;6.506;2023-05-07T02:20:52;12.10;99.90
55083;DHT22;40978;52.850;6.506;2023-05-07T02:23:18;12.10;99.90
55083;DHT22;40978;52.850;6.506;2023-05-07T02:25:43;12.00;99.90
55083;DHT22;40978;52.850;6.506;2023-05-07T02:28:09;12.00;99.90
55083;DHT22;40978;52.850;6.506;2023-05-07T02:30:37;12.00;99.90
55083;DHT22;40978;52.850;6.506;2023-05-07T02:33:03;12.00;99.90
55083;DHT22;40978;52.850;6.506;2023-05-07T02:35:28;12.00;99.90
55083;DHT22;40978;52.850;6.506;2023-05-07T02:37:54;12.00;99.90
55083;DHT22;40978;52.850;6.506;2023-05-07T02:40:20;11.90;99.90
55083;DHT22;40978;52.850;6.506;2023-05-07T02:42:45;11.90;99.90
55083;DHT22;40978;52.850;6.506;2023-05-07T02:45:11;11.90;99.90
55083;DHT22;40978;52.850;6.506;2023-05-07T02:47:37;11.90;99.90
55083;DHT22;40978;52.850;6.506;2023-05-07T02:50:03;11.90;99.90
55083;DHT22;40978;52.850;6.506;2023-05-07T02:52:29;11.90;99.90
55083;DHT22;40978;52.850;6.506;2023-05-07T02:54:54;11.80;99.90
55083;DHT22;40978;52.850;6.506;2023-05-07T02:57:20;11.80;99.90
55083;DHT22;40978;52.850;6.506;2023-05-07T02:59:46;11.80;99.90
55083;DHT22;40978;52.850;6.506;2023-05-07T03:02:12;11.80;99.90
55083;DHT22;40978;52.850;6.506;2023-05-07T03:04:39;11.80;99.90
55083;DHT22;40978;52.850;6.506;2023-05-07T03:07:05;11.70;99.90
55083;DHT22;40978;52.850;6.506;2023-05-07T03:09:30;11.70;99.90
55083;DHT22;40978;52.850;6.506;2023-05-07T03:11:56;11.70;99.90
55083;DHT22;40978;52.850;6.506;2023-05-07T03:14:22;11.70;99.90
55083;DHT22;40978;52.850;6.506;2023-05-07T03:16:49;11.70;99.90
55083;DHT22;40978;52.850;6.506;2023-05-07T03:19:15;11.60;99.90
55083;DHT22;40978;52.850;6.506;2023-05-07T03:21:41;11.60;99.90
55083;DHT22;40978;52.850;6.506;2023-05-07T03:24:07;11.70;99.90
55083;DHT22;40978;52.850;6.506;2023-05-07T03:26:32;11.60;99.90
55083;DHT22;40978;52.850;6.506;2023-05-07T03:28:58;11.60;99.90
55083;DHT22;40978;52.850;6.506;2023-05-07T03:31:24;11.60;99.90
55083;DHT22;40978;52.850;6.506;2023-05-07T03:33:54;11.60;99.90
55083;DHT22;40978;52.850;6.506;2023-05-07T03:36:21;11.60;99.90
55083;DHT22;40978;52.850;6.506;2023-05-07T03:38:47;11.60;99.90
55083;DHT22;40978;52.850;6.506;2023-05-07T03:41:13;11.50;99.90
55083;DHT22;40978;52.850;6.506;2023-05-07T03:43:39;11.50;99.90
55083;DHT22;40978;52.850;6.506;2023-05-07T03:46:05;11.50;99.90
55083;DHT22;40978;52.850;6.506;2023-05-07T03:48:31;11.50;99.90
55083;DHT22;40978;52.850;6.506;2023-05-07T03:50:57;11.50;99.90
55083;DHT22;40978;52.850;6.506;2023-05-07T03:53:23;11.40;99.90
55083;DHT22;40978;52.850;6.506;2023-05-07T03:55:49;11.40;99.90
55083;DHT22;40978;52.850;6.506;2023-05-07T03:58:15;11.40;99.90
55083;DHT22;40978;52.850;6.506;2023-05-07T04:00:41;11.40;99.90
55083;DHT22;40978;52.850;6.506;2023-05-07T04:03:07;11.40;99.90
55083;DHT22;40978;52.850;6.506;2023-05-07T04:05:33;11.40;99.90
55083;DHT22;40978;52.850;6.506;2023-05-07T04:07:59;11.40;99.90
55083;DHT22;40978;52.850;6.506;2023-05-07T04:10:25;11.40;99.90
55083;DHT22;40978;52.850;6.506;2023-05-07T04:12:51;11.40;99.90
55083;DHT22;40978;52.850;6.506;2023-05-07T04:15:17;11.40;99.90
55083;DHT22;40978;52.850;6.506;2023-05-07T04:17:42;11.40;99.90
55083;DHT22;40978;52.850;6.506;2023-05-07T04:20:14;11.40;99.90
55083;DHT22;40978;52.850;6.506;2023-05-07T04:22:40;11.40;99.90
55083;DHT22;40978;52.850;6.506;2023-05-07T04:25:06;11.40;99.90
55083;DHT22;40978;52.850;6.506;2023-05-07T04:27:32;11.40;99.90
55083;DHT22;40978;52.850;6.506;2023-05-07T04:29:58;11.30;99.90
55083;DHT22;40978;52.850;6.506;2023-05-07T04:32:23;11.30;99.90
55083;DHT22;40978;52.850;6.506;2023-05-07T04:34:50;11.40;99.90
55083;DHT22;40978;52.850;6.506;2023-05-07T04:37:16;11.40;99.90
55083;DHT22;40978;52.850;6.506;2023-05-07T04:39:42;11.40;99.90
55083;DHT22;40978;52.850;6.506;2023-05-07T04:42:08;11.40;99.90
55083;DHT22;40978;52.850;6.506;2023-05-07T04:44:34;11.40;99.90
55083;DHT22;40978;52.850;6.506;2023-05-07T04:47:02;11.50;99.90
55083;DHT22;40978;52.850;6.506;2023-05-07T04:49:28;11.40;99.90
55083;DHT22;40978;52.850;6.506;2023-05-07T04:51:53;11.50;99.90
55083;DHT22;40978;52.850;6.506;2023-05-07T04:54:19;11.50;99.90
55083;DHT22;40978;52.850;6.506;2023-05-07T04:56:45;11.50;99.90
55083;DHT22;40978;52.850;6.506;2023-05-07T04:59:10;11.50;99.90
55083;DHT22;40978;52.850;6.506;2023-05-07T05:01:36;11.50;99.90
55083;DHT22;40978;52.850;6.506;2023-05-07T05:04:02;11.50;99.90
55083;DHT22;40978;52.850;6.506;2023-05-07T05:06:28;11.40;99.90
55083;DHT22;40978;52.850;6.506;2023-05-07T05:08:54;11.50;99.90
55083;DHT22;40978;52.850;6.506;2023-05-07T05:11:20;11.50;99.90
55083;DHT22;40978;52.850;6.506;2023-05-07T05:13:46;11.40;99.90
55083;DHT22;40978;52.850;6.506;2023-05-07T05:16:14;11.40;99.90
55083;DHT22;40978;52.850;6.506;2023-05-07T05:18:40;11.40;99.90
55083;DHT22;40978;52.850;6.506;2023-05-07T05:21:06;11.40;99.90
55083;DHT22;40978;52.850;6.506;2023-05-07T05:23:31;11.40;99.90
55083;DHT22;40978;52.850;6.506;2023-05-07T05:25:58;11.40;99.90
55083;DHT22;40978;52.850;6.506;2023-05-07T05:28:24;11.40;99.90
55083;DHT22;40978;52.850;6.506;2023-05-07T05:30:50;11.50;99.90
55083;DHT22;40978;52.850;6.506;2023-05-07T05:33:15;11.50;99.90
55083;DHT22;40978;52.850;6.506;2023-05-07T05:35:42;11.50;99.90
55083;DHT22;40978;52.850;6.506;2023-05-07T05:38:08;11.60;99.90
55083;DHT22;40978;52.850;6.506;2023-05-07T05:40:33;11.60;99.90
55083;DHT22;40978;52.850;6.506;2023-05-07T05:43:00;11.60;99.90
55083;DHT22;40978;52.850;6.506;2023-05-07T05:45:25;11.70;99.90
55083;DHT22;40978;52.850;6.506;2023-05-07T05:47:51;11.70;99.90
55083;DHT22;40978;52.850;6.506;2023-05-07T05:50:17;11.70;99.90
55083;DHT22;40978;52.850;6.506;2023-05-07T05:52:43;11.70;99.90
55083;DHT22;40978;52.850;6.506;2023-05-07T05:55:09;11.80;99.90
55083;DHT22;40978;52.850;6.506;2023-05-07T05:57:34;11.80;99.90
55083;DHT22;40978;52.850;6.506;2023-05-07T06:00:01;11.80;99.90
55083;DHT22;40978;52.850;6.506;2023-05-07T06:02:28;11.90;99.90
55083;DHT22;40978;52.850;6.506;2023-05-07T06:04:53;11.80;99.90
55083;DHT22;40978;52.850;6.506;2023-05-07T06:07:19;11.80;99.90
55083;DHT22;40978;52.850;6.506;2023-05-07T06:09:45;11.90;99.90
55083;DHT22;40978;52.850;6.506;2023-05-07T06:12:11;11.90;99.90
55083;DHT22;40978;52.850;6.506;2023-05-07T06:14:37;12.00;99.90
55083;DHT22;40978;52.850;6.506;2023-05-07T06:17:03;12.00;99.90
55083;DHT22;40978;52.850;6.506;2023-05-07T06:19:29;12.00;99.90
55083;DHT22;40978;52.850;6.506;2023-05-07T06:21:54;12.00;99.90
55083;DHT22;40978;52.850;6.506;2023-05-07T06:24:22;12.00;99.90
55083;DHT22;40978;52.850;6.506;2023-05-07T06:26:48;12.00;99.90
55083;DHT22;40978;52.850;6.506;2023-05-07T06:29:13;12.00;99.90
55083;DHT22;40978;52.850;6.506;2023-05-07T06:31:40;12.00;99.90
55083;DHT22;40978;52.850;6.506;2023-05-07T06:34:05;12.00;99.90
55083;DHT22;40978;52.850;6.506;2023-05-07T06:36:31;12.00;99.90
55083;DHT22;40978;52.850;6.506;2023-05-07T06:38:57;12.10;99.90
55083;DHT22;40978;52.850;6.506;2023-05-07T06:41:23;12.10;99.90
55083;DHT22;40978;52.850;6.506;2023-05-07T06:43:48;12.10;99.90
55083;DHT22;40978;52.850;6.506;2023-05-07T06:46:14;12.10;99.90
55083;DHT22;40978;52.850;6.506;2023-05-07T06:48:40;12.20;99.90
55083;DHT22;40978;52.850;6.506;2023-05-07T06:51:06;12.20;99.90
55083;DHT22;40978;52.850;6.506;2023-05-07T06:53:31;12.30;99.90
55083;DHT22;40978;52.850;6.506;2023-05-07T06:55:57;12.30;99.90
55083;DHT22;40978;52.850;6.506;2023-05-07T06:58:23;12.50;99.90
55083;DHT22;40978;52.850;6.506;2023-05-07T07:00:49;12.60;99.90
55083;DHT22;40978;52.850;6.506;2023-05-07T07:03:14;12.70;99.90
55083;DHT22;40978;52.850;6.506;2023-05-07T07:05:41;12.70;99.90
55083;DHT22;40978;52.850;6.506;2023-05-07T07:08:07;12.70;99.90
55083;DHT22;40978;52.850;6.506;2023-05-07T07:10:33;12.80;99.90
55083;DHT22;40978;52.850;6.506;2023-05-07T07:12:58;12.90;99.90
55083;DHT22;40978;52.850;6.506;2023-05-07T07:15:24;12.80;99.90
55083;DHT22;40978;52.850;6.506;2023-05-07T07:17:50;12.90;99.90
55083;DHT22;40978;52.850;6.506;2023-05-07T07:20:16;12.90;99.90
55083;DHT22;40978;52.850;6.506;2023-05-07T07:22:42;12.90;99.90
55083;DHT22;40978;52.850;6.506;2023-05-07T07:25:08;12.90;99.90
55083;DHT22;40978;52.850;6.506;2023-05-07T07:27:34;12.90;99.90
55083;DHT22;40978;52.850;6.506;2023-05-07T07:30:00;12.90;99.90
55083;DHT22;40978;52.850;6.506;2023-05-07T07:32:26;13.00;99.90
55083;DHT22;40978;52.850;6.506;2023-05-07T07:34:52;12.90;99.90
55083;DHT22;40978;52.850;6.506;2023-05-07T07:37:17;13.00;99.90
55083;DHT22;40978;52.850;6.506;2023-05-07T07:39:43;13.00;99.90
55083;DHT22;40978;52.850;6.506;2023-05-07T07:42:09;13.00;99.90
55083;DHT22;40978;52.850;6.506;2023-05-07T07:44:34;13.10;99.90
55083;DHT22;40978;52.850;6.506;2023-05-07T07:47:00;13.20;99.90
55083;DHT22;40978;52.850;6.506;2023-05-07T07:49:26;13.30;99.90
55083;DHT22;40978;52.850;6.506;2023-05-07T07:51:52;13.40;99.90
55083;DHT22;40978;52.850;6.506;2023-05-07T07:54:18;13.40;99.90
55083;DHT22;40978;52.850;6.506;2023-05-07T07:56:44;13.50;99.90
55083;DHT22;40978;52.850;6.506;2023-05-07T07:59:09;13.50;99.90
55083;DHT22;40978;52.850;6.506;2023-05-07T08:01:35;13.60;99.90
55083;DHT22;40978;52.850;6.506;2023-05-07T08:04:01;13.70;99.90
55083;DHT22;40978;52.850;6.506;2023-05-07T08:06:29;13.70;99.90
55083;DHT22;40978;52.850;6.506;2023-05-07T08:08:54;13.90;99.90
55083;DHT22;40978;52.850;6.506;2023-05-07T08:11:21;14.10;99.90
55083;DHT22;40978;52.850;6.506;2023-05-07T08:13:46;14.20;99.90
55083;DHT22;40978;52.850;6.506;2023-05-07T08:16:12;14.20;99.90
55083;DHT22;40978;52.850;6.506;2023-05-07T08:18:38;14.40;99.90
55083;DHT22;40978;52.850;6.506;2023-05-07T08:21:04;14.50;99.90
55083;DHT22;40978;52.850;6.506;2023-05-07T08:23:30;14.50;99.90
55083;DHT22;40978;52.850;6.506;2023-05-07T08:25:56;14.40;99.90
55083;DHT22;40978;52.850;6.506;2023-05-07T08:28:22;14.50;99.90
55083;DHT22;40978;52.850;6.506;2023-05-07T08:30:50;14.50;99.90
55083;DHT22;40978;52.850;6.506;2023-05-07T08:33:16;14.50;99.90
55083;DHT22;40978;52.850;6.506;2023-05-07T08:35:41;14.50;99.90
55083;DHT22;40978;52.850;6.506;2023-05-07T08:38:07;14.50;99.90
55083;DHT22;40978;52.850;6.506;2023-05-07T08:40:37;14.60;99.90
55083;DHT22;40978;52.850;6.506;2023-05-07T08:43:05;14.80;99.90
55083;DHT22;40978;52.850;6.506;2023-05-07T08:45:33;15.20;99.90
55083;DHT22;40978;52.850;6.506;2023-05-07T08:48:02;15.40;99.90
55083;DHT22;40978;52.850;6.506;2023-05-07T08:50:29;15.40;99.90
55083;DHT22;40978;52.850;6.506;2023-05-07T08:52:55;15.40;99.90
55083;DHT22;40978;52.850;6.506;2023-05-07T08:55:22;15.50;99.90
55083;DHT22;40978;52.850;6.506;2023-05-07T08:57:50;15.60;99.90
55083;DHT22;40978;52.850;6.506;2023-05-07T09:00:18;15.50;99.90
55083;DHT22;40978;52.850;6.506;2023-05-07T09:02:43;15.60;99.90
55083;DHT22;40978;52.850;6.506;2023-05-07T09:05:09;15.80;99.90
55083;DHT22;40978;52.850;6.506;2023-05-07T09:07:35;16.10;99.90
55083;DHT22;40978;52.850;6.506;2023-05-07T09:10:02;16.30;99.90
55083;DHT22;40978;52.850;6.506;2023-05-07T09:12:28;16.50;99.90
55083;DHT22;40978;52.850;6.506;2023-05-07T09:14:54;16.70;99.90
55083;DHT22;40978;52.850;6.506;2023-05-07T09:17:20;17.00;99.90
55083;DHT22;40978;52.850;6.506;2023-05-07T09:19:45;17.30;99.90
55083;DHT22;40978;52.850;6.506;2023-05-07T09:22:12;17.50;99.90
55083;DHT22;40978;52.850;6.506;2023-05-07T09:24:38;17.40;99.90
55083;DHT22;40978;52.850;6.506;2023-05-07T09:27:04;17.50;99.90
55083;DHT22;40978;52.850;6.506;2023-05-07T09:29:31;17.50;99.90
55083;DHT22;40978;52.850;6.506;2023-05-07T09:32:08;17.40;99.90
55083;DHT22;40978;52.850;6.506;2023-05-07T09:34:34;17.50;99.90
55083;DHT22;40978;52.850;6.506;2023-05-07T09:37:01;17.40;99.90
55083;DHT22;40978;52.850;6.506;2023-05-07T09:39:38;17.40;99.90
55083;DHT22;40978;52.850;6.506;2023-05-07T09:42:04;17.70;99.90
55083;DHT22;40978;52.850;6.506;2023-05-07T09:44:32;18.00;99.90
55083;DHT22;40978;52.850;6.506;2023-05-07T09:47:00;18.00;99.90
55083;DHT22;40978;52.850;6.506;2023-05-07T09:49:29;18.10;99.90
55083;DHT22;40978;52.850;6.506;2023-05-07T09:51:55;18.10;99.90
55083;DHT22;40978;52.850;6.506;2023-05-07T09:54:22;18.20;99.90
55083;DHT22;40978;52.850;6.506;2023-05-07T09:56:48;18.30;99.90
55083;DHT22;40978;52.850;6.506;2023-05-07T09:59:15;18.50;99.90
55083;DHT22;40978;52.850;6.506;2023-05-07T10:01:43;18.90;99.90
55083;DHT22;40978;52.850;6.506;2023-05-07T10:04:09;19.20;99.90
55083;DHT22;40978;52.850;6.506;2023-05-07T10:06:36;19.20;99.90
55083;DHT22;40978;52.850;6.506;2023-05-07T10:09:04;19.20;99.90
55083;DHT22;40978;52.850;6.506;2023-05-07T10:11:37;19.10;99.90
55083;DHT22;40978;52.850;6.506;2023-05-07T10:14:03;19.00;99.90
55083;DHT22;40978;52.850;6.506;2023-05-07T10:16:36;18.80;99.90
55083;DHT22;40978;52.850;6.506;2023-05-07T10:19:07;18.60;99.90
55083;DHT22;40978;52.850;6.506;2023-05-07T10:21:37;18.50;99.90
55083;DHT22;40978;52.850;6.506;2023-05-07T10:24:10;18.50;99.90
55083;DHT22;40978;52.850;6.506;2023-05-07T10:26:42;18.50;99.90
55083;DHT22;40978;52.850;6.506;2023-05-07T10:32:12;18.50;99.90
55083;DHT22;40978;52.850;6.506;2023-05-07T10:34:43;18.20;99.90
55083;DHT22;40978;52.850;6.506;2023-05-07T10:37:10;18.20;99.90
55083;DHT22;40978;52.850;6.506;2023-05-07T10:39:37;18.10;99.90
55083;DHT22;40978;52.850;6.506;2023-05-07T10:42:13;18.20;99.90
55083;DHT22;40978;52.850;6.506;2023-05-07T10:44:40;18.30;99.90
55083;DHT22;40978;52.850;6.506;2023-05-07T10:47:16;18.40;99.90
55083;DHT22;40978;52.850;6.506;2023-05-07T10:52:17;18.60;99.90
55083;DHT22;40978;52.850;6.506;2023-05-07T10:54:44;18.70;99.90
55083;DHT22;40978;52.850;6.506;2023-05-07T10:57:42;18.70;99.90
55083;DHT22;40978;52.850;6.506;2023-05-07T11:05:31;19.30;99.90
55083;DHT22;40978;52.850;6.506;2023-05-07T11:07:59;19.40;99.90
55083;DHT22;40978;52.850;6.506;2023-05-07T11:10:51;19.30;99.90
55083;DHT22;40978;52.850;6.506;2023-05-07T11:13:41;19.20;99.90
55083;DHT22;40978;52.850;6.506;2023-05-07T11:16:25;19.20;99.90
55083;DHT22;40978;52.850;6.506;2023-05-07T11:18:59;19.30;99.90
55083;DHT22;40978;52.850;6.506;2023-05-07T11:21:42;19.50;99.90
55083;DHT22;40978;52.850;6.506;2023-05-07T11:24:13;19.60;99.90
55083;DHT22;40978;52.850;6.506;2023-05-07T11:26:59;19.70;99.90
55083;DHT22;40978;52.850;6.506;2023-05-07T11:29:25;19.90;99.90
55083;DHT22;40978;52.850;6.506;2023-05-07T11:31:55;19.90;99.90
55083;DHT22;40978;52.850;6.506;2023-05-07T11:34:22;19.90;99.90
55083;DHT22;40978;52.850;6.506;2023-05-07T11:36:49;20.00;99.90
55083;DHT22;40978;52.850;6.506;2023-05-07T11:39:25;20.10;99.90
55083;DHT22;40978;52.850;6.506;2023-05-07T11:41:51;20.10;99.90
55083;DHT22;40978;52.850;6.506;2023-05-07T11:44:17;20.20;99.90
55083;DHT22;40978;52.850;6.506;2023-05-07T11:46:43;20.20;99.90
55083;DHT22;40978;52.850;6.506;2023-05-07T11:49:10;20.40;99.90
55083;DHT22;40978;52.850;6.506;2023-05-07T11:51:36;20.70;99.90
55083;DHT22;40978;52.850;6.506;2023-05-07T11:54:03;21.20;99.90
55083;DHT22;40978;52.850;6.506;2023-05-07T11:56:33;21.50;99.90
55083;DHT22;40978;52.850;6.506;2023-05-07T11:58:59;21.50;99.90
55083;DHT22;40978;52.850;6.506;2023-05-07T12:01:25;21.40;99.90
55083;DHT22;40978;52.850;6.506;2023-05-07T12:03:50;21.40;99.90
55083;DHT22;40978;52.850;6.506;2023-05-07T12:06:17;21.60;99.90
55083;DHT22;40978;52.850;6.506;2023-05-07T12:08:44;21.70;99.90
55083;DHT22;40978;52.850;6.506;2023-05-07T12:11:16;21.80;99.90
55083;DHT22;40978;52.850;6.506;2023-05-07T12:13:43;21.80;99.90
55083;DHT22;40978;52.850;6.506;2023-05-07T12:16:09;21.80;99.90
55083;DHT22;40978;52.850;6.506;2023-05-07T12:18:36;21.70;99.90
55083;DHT22;40978;52.850;6.506;2023-05-07T12:21:04;21.80;99.90
55083;DHT22;40978;52.850;6.506;2023-05-07T12:23:30;21.90;99.90
55083;DHT22;40978;52.850;6.506;2023-05-07T12:25:56;22.10;99.90
55083;DHT22;40978;52.850;6.506;2023-05-07T12:28:22;22.20;99.90
55083;DHT22;40978;52.850;6.506;2023-05-07T12:30:49;22.20;99.90
55083;DHT22;40978;52.850;6.506;2023-05-07T12:33:24;22.10;99.90
55083;DHT22;40978;52.850;6.506;2023-05-07T12:35:50;22.10;99.90
55083;DHT22;40978;52.850;6.506;2023-05-07T12:38:17;21.80;99.90
55083;DHT22;40978;52.850;6.506;2023-05-07T12:40:47;21.70;99.90
55083;DHT22;40978;52.850;6.506;2023-05-07T12:45:47;21.80;99.90
55083;DHT22;40978;52.850;6.506;2023-05-07T12:48:13;21.80;99.90
55083;DHT22;40978;52.850;6.506;2023-05-07T12:50:39;21.80;99.90
55083;DHT22;40978;52.850;6.506;2023-05-07T12:53:06;21.90;99.90
55083;DHT22;40978;52.850;6.506;2023-05-07T12:55:50;22.00;99.90
55083;DHT22;40978;52.850;6.506;2023-05-07T12:58:30;22.30;99.90
55083;DHT22;40978;52.850;6.506;2023-05-07T13:01:00;22.50;99.90
55083;DHT22;40978;52.850;6.506;2023-05-07T13:03:30;22.80;99.90
55083;DHT22;40978;52.850;6.506;2023-05-07T13:06:04;23.00;99.90
55083;DHT22;40978;52.850;6.506;2023-05-07T13:08:35;23.20;99.90
55083;DHT22;40978;52.850;6.506;2023-05-07T13:11:03;23.20;99.90
55083;DHT22;40978;52.850;6.506;2023-05-07T13:13:34;22.80;99.90
55083;DHT22;40978;52.850;6.506;2023-05-07T13:16:03;22.60;99.90
55083;DHT22;40978;52.850;6.506;2023-05-07T13:18:31;22.40;99.90
55083;DHT22;40978;52.850;6.506;2023-05-07T13:20:57;22.20;99.90
55083;DHT22;40978;52.850;6.506;2023-05-07T13:23:23;22.30;99.90
55083;DHT22;40978;52.850;6.506;2023-05-07T13:25:49;22.30;99.90
55083;DHT22;40978;52.850;6.506;2023-05-07T13:28:16;22.20;99.90
55083;DHT22;40978;52.850;6.506;2023-05-07T13:30:42;22.00;99.90
55083;DHT22;40978;52.850;6.506;2023-05-07T13:33:08;21.90;99.90
55083;DHT22;40978;52.850;6.506;2023-05-07T13:35:33;21.70;99.90
55083;DHT22;40978;52.850;6.506;2023-05-07T13:37:59;21.50;99.90
55083;DHT22;40978;52.850;6.506;2023-05-07T13:40:25;21.30;99.90
55083;DHT22;40978;52.850;6.506;2023-05-07T13:42:51;21.10;99.90
55083;DHT22;40978;52.850;6.506;2023-05-07T13:45:20;20.80;99.90
55083;DHT22;40978;52.850;6.506;2023-05-07T13:47:46;20.70;99.90
55083;DHT22;40978;52.850;6.506;2023-05-07T13:50:12;20.60;99.90
55083;DHT22;40978;52.850;6.506;2023-05-07T13:52:42;20.50;99.90
55083;DHT22;40978;52.850;6.506;2023-05-07T13:55:12;20.30;99.90
55083;DHT22;40978;52.850;6.506;2023-05-07T13:57:38;20.20;99.90
55083;DHT22;40978;52.850;6.506;2023-05-07T14:00:04;20.00;99.90
55083;DHT22;40978;52.850;6.506;2023-05-07T14:02:31;20.00;99.90
55083;DHT22;40978;52.850;6.506;2023-05-07T14:04:57;20.00;99.90
55083;DHT22;40978;52.850;6.506;2023-05-07T14:07:22;20.00;99.90
55083;DHT22;40978;52.850;6.506;2023-05-07T14:09:48;20.00;99.90
55083;DHT22;40978;52.850;6.506;2023-05-07T14:12:14;20.00;99.90
55083;DHT22;40978;52.850;6.506;2023-05-07T14:14:39;19.90;99.90
55083;DHT22;40978;52.850;6.506;2023-05-07T14:17:05;19.90;99.90
55083;DHT22;40978;52.850;6.506;2023-05-07T14:19:31;19.80;99.90
55083;DHT22;40978;52.850;6.506;2023-05-07T14:21:56;19.90;99.90
55083;DHT22;40978;52.850;6.506;2023-05-07T14:24:23;19.90;99.90
55083;DHT22;40978;52.850;6.506;2023-05-07T14:26:49;19.90;99.90
55083;DHT22;40978;52.850;6.506;2023-05-07T14:29:15;19.90;99.90
55083;DHT22;40978;52.850;6.506;2023-05-07T14:31:44;19.70;99.90
55083;DHT22;40978;52.850;6.506;2023-05-07T14:34:10;19.60;99.90
55083;DHT22;40978;52.850;6.506;2023-05-07T14:36:36;19.60;99.90
55083;DHT22;40978;52.850;6.506;2023-05-07T14:39:03;19.50;99.90
55083;DHT22;40978;52.850;6.506;2023-05-07T14:41:29;19.50;99.90
55083;DHT22;40978;52.850;6.506;2023-05-07T14:43:55;19.40;99.90
55083;DHT22;40978;52.850;6.506;2023-05-07T14:46:21;19.30;99.90
55083;DHT22;40978;52.850;6.506;2023-05-07T14:48:47;19.30;99.90
55083;DHT22;40978;52.850;6.506;2023-05-07T14:51:13;19.20;99.90
55083;DHT22;40978;52.850;6.506;2023-05-07T14:53:40;19.10;99.90
55083;DHT22;40978;52.850;6.506;2023-05-07T14:56:06;19.10;99.90
55083;DHT22;40978;52.850;6.506;2023-05-07T14:58:33;19.10;99.90
55083;DHT22;40978;52.850;6.506;2023-05-07T15:00:59;19.20;99.90
55083;DHT22;40978;52.850;6.506;2023-05-07T15:03:25;19.30;99.90
55083;DHT22;40978;52.850;6.506;2023-05-07T15:05:51;19.30;99.90
55083;DHT22;40978;52.850;6.506;2023-05-07T15:08:17;19.30;99.90
55083;DHT22;40978;52.850;6.506;2023-05-07T15:10:43;19.40;99.90
55083;DHT22;40978;52.850;6.506;2023-05-07T15:13:10;19.50;99.90
55083;DHT22;40978;52.850;6.506;2023-05-07T15:15:36;19.60;99.90
55083;DHT22;40978;52.850;6.506;2023-05-07T15:18:02;19.60;99.90
55083;DHT22;40978;52.850;6.506;2023-05-07T15:20:28;19.60;99.90
55083;DHT22;40978;52.850;6.506;2023-05-07T15:22:54;19.50;99.90
55083;DHT22;40978;52.850;6.506;2023-05-07T15:25:20;19.50;99.90
55083;DHT22;40978;52.850;6.506;2023-05-07T15:27:46;19.40;99.90
55083;DHT22;40978;52.850;6.506;2023-05-07T15:30:12;19.20;99.90
55083;DHT22;40978;52.850;6.506;2023-05-07T15:32:40;19.00;99.90
55083;DHT22;40978;52.850;6.506;2023-05-07T15:35:07;18.80;99.90
55083;DHT22;40978;52.850;6.506;2023-05-07T15:37:33;18.80;99.90
55083;DHT22;40978;52.850;6.506;2023-05-07T15:39:59;18.80;99.90
55083;DHT22;40978;52.850;6.506;2023-05-07T15:42:25;18.80;99.90